sensor_id;sensor_type;location;lat;lon;timestamp;P1;durP1;ratioP1;P2;durP2;ratioP2
13941;SDS011;7043;51.630;7.254;2023-02-03T00:01:22;25.50;;;20.63;;
13941;SDS011;7043;51.630;7.254;2023-02-03T00:03:48;25.83;;;21.70;;
13941;SDS011;7043;51.630;7.254;2023-02-03T00:06:14;25.07;;;20.17;;
13941;SDS011;7043;51.630;7.254;2023-02-03T00:08:40;25.73;;;20.93;;
13941;SDS011;7043;51.630;7.254;2023-02-03T00:11:06;25.77;;;21.10;;
13941;SDS011;7043;51.630;7.254;2023-02-03T00:13:32;23.50;;;19.67;;
13941;SDS011;7043;51.630;7.254;2023-02-03T00:15:58;25.90;;;20.53;;
13941;SDS011;7043;51.630;7.254;2023-02-03T00:18:26;26.43;;;20.27;;
13941;SDS011;7043;51.630;7.254;2023-02-03T00:20:52;25.90;;;20.47;;
13941;SDS011;7043;51.630;7.254;2023-02-03T00:23:18;20.00;;;16.00;;
13941;SDS011;7043;51.630;7.254;2023-02-03T00:25:45;23.93;;;20.33;;
13941;SDS011;7043;51.630;7.254;2023-02-03T00:28:11;22.40;;;20.03;;
13941;SDS011;7043;51.630;7.254;2023-02-03T00:30:37;25.80;;;20.43;;
13941;SDS011;7043;51.630;7.254;2023-02-03T00:33:03;25.10;;;21.30;;
13941;SDS011;7043;51.630;7.254;2023-02-03T00:35:29;25.87;;;21.23;;
13941;SDS011;7043;51.630;7.254;2023-02-03T00:37:55;27.33;;;20.23;;
13941;SDS011;7043;51.630;7.254;2023-02-03T00:40:23;26.33;;;21.60;;
13941;SDS011;7043;51.630;7.254;2023-02-03T00:42:50;24.93;;;20.90;;
13941;SDS011;7043;51.630;7.254;2023-02-03T00:45:17;22.43;;;19.93;;
13941;SDS011;7043;51.630;7.254;2023-02-03T00:47:43;24.23;;;19.50;;
13941;SDS011;7043;51.630;7.254;2023-02-03T00:50:09;23.90;;;20.77;;
13941;SDS011;7043;51.630;7.254;2023-02-03T00:52:35;27.13;;;20.17;;
13941;SDS011;7043;51.630;7.254;2023-02-03T00:55:02;22.40;;;19.23;;
13941;SDS011;7043;51.630;7.254;2023-02-03T00:57:28;26.17;;;21.07;;
13941;SDS011;7043;51.630;7.254;2023-02-03T00:59:54;23.60;;;19.57;;
13941;SDS011;7043;51.630;7.254;2023-02-03T01:02:21;24.47;;;19.23;;
13941;SDS011;7043;51.630;7.254;2023-02-03T01:04:47;24.13;;;19.77;;
13941;SDS011;7043;51.630;7.254;2023-02-03T01:07:14;21.37;;;16.07;;
13941;SDS011;7043;51.630;7.254;2023-02-03T01:09:40;23.53;;;18.30;;
13941;SDS011;7043;51.630;7.254;2023-02-03T01:12:06;21.53;;;17.63;;
13941;SDS011;7043;51.630;7.254;2023-02-03T01:14:32;18.80;;;16.10;;
13941;SDS011;7043;51.630;7.254;2023-02-03T01:16:58;23.63;;;19.90;;
13941;SDS011;7043;51.630;7.254;2023-02-03T01:19:24;23.13;;;17.47;;
13941;SDS011;7043;51.630;7.254;2023-02-03T01:21:50;22.87;;;16.50;;
13941;SDS011;7043;51.630;7.254;2023-02-03T01:24:16;21.17;;;18.63;;
13941;SDS011;7043;51.630;7.254;2023-02-03T01:26:43;20.70;;;18.10;;
13941;SDS011;7043;51.630;7.254;2023-02-03T01:29:09;22.27;;;19.23;;
13941;SDS011;7043;51.630;7.254;2023-02-03T01:31:36;21.93;;;16.17;;
13941;SDS011;7043;51.630;7.254;2023-02-03T01:34:03;21.50;;;19.13;;
13941;SDS011;7043;51.630;7.254;2023-02-03T01:36:33;18.63;;;15.10;;
13941;SDS011;7043;51.630;7.254;2023-02-03T01:39:00;22.80;;;17.20;;
13941;SDS011;7043;51.630;7.254;2023-02-03T01:41:27;23.83;;;19.10;;
13941;SDS011;7043;51.630;7.254;2023-02-03T01:43:54;26.77;;;19.83;;
13941;SDS011;7043;51.630;7.254;2023-02-03T01:46:24;21.20;;;18.47;;
13941;SDS011;7043;51.630;7.254;2023-02-03T01:49:05;22.33;;;17.37;;
13941;SDS011;7043;51.630;7.254;2023-02-03T01:51:33;21.47;;;18.60;;
13941;SDS011;7043;51.630;7.254;2023-02-03T01:53:59;23.87;;;18.83;;
13941;SDS011;7043;51.630;7.254;2023-02-03T01:56:27;23.77;;;18.93;;
13941;SDS011;7043;51.630;7.254;2023-02-03T01:58:55;23.53;;;17.77;;
13941;SDS011;7043;51.630;7.254;2023-02-03T02:01:22;21.10;;;16.43;;
13941;SDS011;7043;51.630;7.254;2023-02-03T02:03:51;24.80;;;18.33;;
13941;SDS011;7043;51.630;7.254;2023-02-03T02:06:19;18.63;;;15.63;;
13941;SDS011;7043;51.630;7.254;2023-02-03T02:08:46;17.73;;;14.97;;
13941;SDS011;7043;51.630;7.254;2023-02-03T02:11:13;23.17;;;17.67;;
13941;SDS011;7043;51.630;7.254;2023-02-03T02:13:40;21.67;;;18.07;;
13941;SDS011;7043;51.630;7.254;2023-02-03T02:28:52;21.37;;;14.97;;
13941;SDS011;7043;51.630;7.254;2023-02-03T02:34:04;23.23;;;15.47;;
13941;SDS011;7043;51.630;7.254;2023-02-03T02:44:47;24.10;;;15.00;;
13941;SDS011;7043;51.630;7.254;2023-02-03T02:47:17;16.77;;;13.00;;
13941;SDS011;7043;51.630;7.254;2023-02-03T02:52:10;16.20;;;13.40;;
13941;SDS011;7043;51.630;7.254;2023-02-03T02:54:37;21.40;;;16.17;;
13941;SDS011;7043;51.630;7.254;2023-02-03T02:57:04;18.97;;;13.53;;
13941;SDS011;7043;51.630;7.254;2023-02-03T02:59:32;23.20;;;16.50;;
13941;SDS011;7043;51.630;7.254;2023-02-03T03:01:58;17.37;;;14.90;;
13941;SDS011;7043;51.630;7.254;2023-02-03T03:04:25;20.70;;;14.07;;
13941;SDS011;7043;51.630;7.254;2023-02-03T03:07:09;17.93;;;14.33;;
13941;SDS011;7043;51.630;7.254;2023-02-03T03:09:41;21.47;;;15.13;;
13941;SDS011;7043;51.630;7.254;2023-02-03T03:14:38;20.23;;;13.50;;
13941;SDS011;7043;51.630;7.254;2023-02-03T03:17:06;17.60;;;14.43;;
13941;SDS011;7043;51.630;7.254;2023-02-03T03:19:34;16.40;;;12.77;;
13941;SDS011;7043;51.630;7.254;2023-02-03T03:22:04;17.67;;;12.63;;
13941;SDS011;7043;51.630;7.254;2023-02-03T03:24:31;17.13;;;12.53;;
13941;SDS011;7043;51.630;7.254;2023-02-03T03:27:03;18.60;;;13.93;;
13941;SDS011;7043;51.630;7.254;2023-02-03T03:29:32;19.10;;;14.00;;
13941;SDS011;7043;51.630;7.254;2023-02-03T03:32:00;15.83;;;11.77;;
13941;SDS011;7043;51.630;7.254;2023-02-03T03:34:27;17.77;;;11.80;;
13941;SDS011;7043;51.630;7.254;2023-02-03T03:37:01;14.37;;;10.30;;
13941;SDS011;7043;51.630;7.254;2023-02-03T03:39:41;13.37;;;9.70;;
13941;SDS011;7043;51.630;7.254;2023-02-03T03:42:56;17.13;;;12.20;;
13941;SDS011;7043;51.630;7.254;2023-02-03T03:47:36;13.33;;;10.80;;
13941;SDS011;7043;51.630;7.254;2023-02-03T03:50:03;11.90;;;10.00;;
13941;SDS011;7043;51.630;7.254;2023-02-03T03:52:31;13.00;;;8.90;;
13941;SDS011;7043;51.630;7.254;2023-02-03T03:54:59;12.97;;;9.40;;
13941;SDS011;7043;51.630;7.254;2023-02-03T03:57:34;14.43;;;9.40;;
13941;SDS011;7043;51.630;7.254;2023-02-03T04:00:04;14.27;;;9.03;;
13941;SDS011;7043;51.630;7.254;2023-02-03T04:02:37;15.93;;;10.73;;
13941;SDS011;7043;51.630;7.254;2023-02-03T04:05:07;12.03;;;8.43;;
13941;SDS011;7043;51.630;7.254;2023-02-03T04:07:43;12.33;;;8.30;;
13941;SDS011;7043;51.630;7.254;2023-02-03T04:10:15;13.47;;;9.13;;
13941;SDS011;7043;51.630;7.254;2023-02-03T04:12:43;14.03;;;8.97;;
13941;SDS011;7043;51.630;7.254;2023-02-03T04:15:09;10.83;;;8.43;;
13941;SDS011;7043;51.630;7.254;2023-02-03T04:17:35;12.03;;;8.63;;
13941;SDS011;7043;51.630;7.254;2023-02-03T04:20:02;11.67;;;7.90;;
13941;SDS011;7043;51.630;7.254;2023-02-03T04:22:28;10.93;;;7.63;;
13941;SDS011;7043;51.630;7.254;2023-02-03T04:24:54;12.47;;;8.23;;
13941;SDS011;7043;51.630;7.254;2023-02-03T04:27:22;10.83;;;7.40;;
13941;SDS011;7043;51.630;7.254;2023-02-03T04:29:49;11.70;;;6.83;;
13941;SDS011;7043;51.630;7.254;2023-02-03T04:32:15;11.23;;;6.80;;
13941;SDS011;7043;51.630;7.254;2023-02-03T04:34:41;11.20;;;7.47;;
13941;SDS011;7043;51.630;7.254;2023-02-03T04:37:10;10.30;;;7.17;;
13941;SDS011;7043;51.630;7.254;2023-02-03T04:39:39;8.07;;;6.27;;
13941;SDS011;7043;51.630;7.254;2023-02-03T04:42:05;10.90;;;7.13;;
13941;SDS011;7043;51.630;7.254;2023-02-03T04:44:31;12.37;;;6.83;;
13941;SDS011;7043;51.630;7.254;2023-02-03T04:46:57;11.90;;;6.80;;
13941;SDS011;7043;51.630;7.254;2023-02-03T04:49:23;10.47;;;5.90;;
13941;SDS011;7043;51.630;7.254;2023-02-03T04:51:49;10.23;;;5.97;;
13941;SDS011;7043;51.630;7.254;2023-02-03T04:54:15;11.57;;;6.67;;
13941;SDS011;7043;51.630;7.254;2023-02-03T04:56:41;14.03;;;6.63;;
13941;SDS011;7043;51.630;7.254;2023-02-03T04:59:07;10.37;;;6.00;;
13941;SDS011;7043;51.630;7.254;2023-02-03T05:01:33;8.53;;;5.47;;
13941;SDS011;7043;51.630;7.254;2023-02-03T05:04:01;9.60;;;5.27;;
13941;SDS011;7043;51.630;7.254;2023-02-03T05:06:29;7.67;;;5.20;;
13941;SDS011;7043;51.630;7.254;2023-02-03T05:08:56;10.03;;;5.77;;
13941;SDS011;7043;51.630;7.254;2023-02-03T05:11:24;10.67;;;5.57;;
13941;SDS011;7043;51.630;7.254;2023-02-03T05:13:50;12.03;;;5.60;;
13941;SDS011;7043;51.630;7.254;2023-02-03T05:16:20;12.77;;;5.57;;
13941;SDS011;7043;51.630;7.254;2023-02-03T05:18:46;9.93;;;5.60;;
13941;SDS011;7043;51.630;7.254;2023-02-03T05:21:12;9.00;;;5.60;;
13941;SDS011;7043;51.630;7.254;2023-02-03T05:23:38;7.23;;;3.83;;
13941;SDS011;7043;51.630;7.254;2023-02-03T05:26:06;11.50;;;5.27;;
13941;SDS011;7043;51.630;7.254;2023-02-03T05:28:33;7.70;;;4.47;;
13941;SDS011;7043;51.630;7.254;2023-02-03T05:31:04;8.90;;;4.67;;
13941;SDS011;7043;51.630;7.254;2023-02-03T05:33:33;10.47;;;4.80;;
13941;SDS011;7043;51.630;7.254;2023-02-03T05:36:05;7.30;;;4.97;;
13941;SDS011;7043;51.630;7.254;2023-02-03T05:38:31;8.87;;;4.43;;
13941;SDS011;7043;51.630;7.254;2023-02-03T05:40:58;9.10;;;4.33;;
13941;SDS011;7043;51.630;7.254;2023-02-03T05:43:44;8.77;;;5.03;;
13941;SDS011;7043;51.630;7.254;2023-02-03T05:46:10;8.00;;;4.43;;
13941;SDS011;7043;51.630;7.254;2023-02-03T05:48:37;11.37;;;4.77;;
13941;SDS011;7043;51.630;7.254;2023-02-03T05:51:05;7.60;;;4.60;;
13941;SDS011;7043;51.630;7.254;2023-02-03T05:53:31;8.20;;;4.40;;
13941;SDS011;7043;51.630;7.254;2023-02-03T05:55:58;8.80;;;4.40;;
13941;SDS011;7043;51.630;7.254;2023-02-03T05:58:24;8.73;;;4.87;;
13941;SDS011;7043;51.630;7.254;2023-02-03T06:00:50;8.80;;;4.33;;
13941;SDS011;7043;51.630;7.254;2023-02-03T06:03:21;7.73;;;3.40;;
13941;SDS011;7043;51.630;7.254;2023-02-03T06:05:47;7.57;;;4.07;;
13941;SDS011;7043;51.630;7.254;2023-02-03T06:08:16;6.00;;;4.07;;
13941;SDS011;7043;51.630;7.254;2023-02-03T06:10:42;7.67;;;4.20;;
13941;SDS011;7043;51.630;7.254;2023-02-03T06:13:10;8.40;;;4.10;;
13941;SDS011;7043;51.630;7.254;2023-02-03T06:15:40;7.60;;;3.63;;
13941;SDS011;7043;51.630;7.254;2023-02-03T06:18:07;7.57;;;3.80;;
13941;SDS011;7043;51.630;7.254;2023-02-03T06:20:33;7.60;;;4.17;;
13941;SDS011;7043;51.630;7.254;2023-02-03T06:23:05;6.70;;;3.57;;
13941;SDS011;7043;51.630;7.254;2023-02-03T06:25:35;9.60;;;4.40;;
13941;SDS011;7043;51.630;7.254;2023-02-03T06:28:11;9.23;;;4.30;;
13941;SDS011;7043;51.630;7.254;2023-02-03T06:33:07;8.03;;;3.90;;
13941;SDS011;7043;51.630;7.254;2023-02-03T06:35:34;7.53;;;3.90;;
13941;SDS011;7043;51.630;7.254;2023-02-03T06:38:00;6.23;;;3.40;;
13941;SDS011;7043;51.630;7.254;2023-02-03T06:40:26;7.00;;;3.93;;
13941;SDS011;7043;51.630;7.254;2023-02-03T06:42:52;8.07;;;3.70;;
13941;SDS011;7043;51.630;7.254;2023-02-03T06:45:20;7.10;;;3.57;;
13941;SDS011;7043;51.630;7.254;2023-02-03T06:47:48;7.07;;;4.07;;
13941;SDS011;7043;51.630;7.254;2023-02-03T06:50:14;6.97;;;3.53;;
13941;SDS011;7043;51.630;7.254;2023-02-03T06:52:40;6.83;;;3.60;;
13941;SDS011;7043;51.630;7.254;2023-02-03T06:55:07;7.53;;;3.20;;
13941;SDS011;7043;51.630;7.254;2023-02-03T06:57:33;4.77;;;3.03;;
13941;SDS011;7043;51.630;7.254;2023-02-03T07:00:00;7.00;;;4.03;;
13941;SDS011;7043;51.630;7.254;2023-02-03T07:02:26;5.17;;;3.03;;
13941;SDS011;7043;51.630;7.254;2023-02-03T07:04:52;4.63;;;2.90;;
13941;SDS011;7043;51.630;7.254;2023-02-03T07:07:24;6.10;;;3.07;;
13941;SDS011;7043;51.630;7.254;2023-02-03T07:09:50;5.37;;;3.57;;
13941;SDS011;7043;51.630;7.254;2023-02-03T07:12:24;4.43;;;3.30;;
13941;SDS011;7043;51.630;7.254;2023-02-03T07:14:54;7.23;;;3.13;;
13941;SDS011;7043;51.630;7.254;2023-02-03T07:17:20;6.20;;;3.20;;
13941;SDS011;7043;51.630;7.254;2023-02-03T07:19:46;6.73;;;3.20;;
13941;SDS011;7043;51.630;7.254;2023-02-03T07:22:15;4.23;;;3.20;;
13941;SDS011;7043;51.630;7.254;2023-02-03T07:24:41;7.60;;;3.57;;
13941;SDS011;7043;51.630;7.254;2023-02-03T07:27:07;6.37;;;3.00;;
13941;SDS011;7043;51.630;7.254;2023-02-03T07:29:34;6.23;;;3.90;;
13941;SDS011;7043;51.630;7.254;2023-02-03T07:32:00;5.63;;;3.17;;
13941;SDS011;7043;51.630;7.254;2023-02-03T07:34:27;10.00;;;3.80;;
13941;SDS011;7043;51.630;7.254;2023-02-03T07:36:53;6.47;;;2.97;;
13941;SDS011;7043;51.630;7.254;2023-02-03T07:39:19;8.53;;;4.03;;
13941;SDS011;7043;51.630;7.254;2023-02-03T07:41:45;7.30;;;3.90;;
13941;SDS011;7043;51.630;7.254;2023-02-03T07:44:11;8.97;;;4.13;;
13941;SDS011;7043;51.630;7.254;2023-02-03T07:46:38;6.33;;;3.63;;
13941;SDS011;7043;51.630;7.254;2023-02-03T07:49:09;6.07;;;4.10;;
13941;SDS011;7043;51.630;7.254;2023-02-03T07:51:36;6.60;;;3.50;;
13941;SDS011;7043;51.630;7.254;2023-02-03T07:54:02;6.30;;;3.53;;
13941;SDS011;7043;51.630;7.254;2023-02-03T07:56:28;7.60;;;3.30;;
13941;SDS011;7043;51.630;7.254;2023-02-03T07:58:56;6.50;;;3.07;;
13941;SDS011;7043;51.630;7.254;2023-02-03T08:01:22;8.13;;;4.27;;
13941;SDS011;7043;51.630;7.254;2023-02-03T08:03:48;8.47;;;4.27;;
13941;SDS011;7043;51.630;7.254;2023-02-03T08:06:14;5.87;;;3.67;;
13941;SDS011;7043;51.630;7.254;2023-02-03T08:08:40;6.37;;;3.57;;
13941;SDS011;7043;51.630;7.254;2023-02-03T08:11:07;6.27;;;3.60;;
13941;SDS011;7043;51.630;7.254;2023-02-03T08:13:33;7.70;;;3.60;;
13941;SDS011;7043;51.630;7.254;2023-02-03T08:15:59;6.57;;;3.70;;
13941;SDS011;7043;51.630;7.254;2023-02-03T08:18:25;5.37;;;3.23;;
13941;SDS011;7043;51.630;7.254;2023-02-03T08:20:51;5.30;;;4.00;;
13941;SDS011;7043;51.630;7.254;2023-02-03T08:23:17;7.77;;;3.73;;
13941;SDS011;7043;51.630;7.254;2023-02-03T08:25:43;5.97;;;3.47;;
13941;SDS011;7043;51.630;7.254;2023-02-03T08:28:09;7.40;;;3.83;;
13941;SDS011;7043;51.630;7.254;2023-02-03T08:30:35;6.53;;;3.90;;
13941;SDS011;7043;51.630;7.254;2023-02-03T08:33:01;6.43;;;3.50;;
13941;SDS011;7043;51.630;7.254;2023-02-03T08:35:27;8.13;;;4.10;;
13941;SDS011;7043;51.630;7.254;2023-02-03T08:37:53;7.43;;;4.40;;
13941;SDS011;7043;51.630;7.254;2023-02-03T08:40:20;8.37;;;4.93;;
13941;SDS011;7043;51.630;7.254;2023-02-03T08:42:46;8.10;;;3.37;;
13941;SDS011;7043;51.630;7.254;2023-02-03T08:45:12;6.97;;;4.43;;
13941;SDS011;7043;51.630;7.254;2023-02-03T08:47:38;4.20;;;2.50;;
13941;SDS011;7043;51.630;7.254;2023-02-03T08:50:05;7.13;;;4.53;;
13941;SDS011;7043;51.630;7.254;2023-02-03T08:52:31;7.07;;;3.93;;
13941;SDS011;7043;51.630;7.254;2023-02-03T08:54:57;6.33;;;4.87;;
13941;SDS011;7043;51.630;7.254;2023-02-03T08:57:23;5.87;;;4.07;;
13941;SDS011;7043;51.630;7.254;2023-02-03T08:59:49;7.40;;;5.30;;
13941;SDS011;7043;51.630;7.254;2023-02-03T09:02:16;9.10;;;5.83;;
13941;SDS011;7043;51.630;7.254;2023-02-03T09:04:43;8.03;;;5.43;;
13941;SDS011;7043;51.630;7.254;2023-02-03T09:07:09;8.77;;;5.10;;
13941;SDS011;7043;51.630;7.254;2023-02-03T09:09:35;8.53;;;4.20;;
13941;SDS011;7043;51.630;7.254;2023-02-03T09:12:01;9.13;;;5.40;;
13941;SDS011;7043;51.630;7.254;2023-02-03T09:14:29;8.83;;;5.57;;
13941;SDS011;7043;51.630;7.254;2023-02-03T09:16:57;10.57;;;5.10;;
13941;SDS011;7043;51.630;7.254;2023-02-03T09:19:23;8.90;;;5.63;;
13941;SDS011;7043;51.630;7.254;2023-02-03T09:21:49;7.53;;;5.47;;
13941;SDS011;7043;51.630;7.254;2023-02-03T09:24:16;7.30;;;4.63;;
13941;SDS011;7043;51.630;7.254;2023-02-03T09:26:42;10.80;;;5.70;;
13941;SDS011;7043;51.630;7.254;2023-02-03T09:29:08;6.97;;;4.73;;
13941;SDS011;7043;51.630;7.254;2023-02-03T09:31:34;6.93;;;4.97;;
13941;SDS011;7043;51.630;7.254;2023-02-03T09:34:00;8.70;;;5.00;;
13941;SDS011;7043;51.630;7.254;2023-02-03T09:36:26;10.60;;;5.20;;
13941;SDS011;7043;51.630;7.254;2023-02-03T09:38:52;10.03;;;5.43;;
13941;SDS011;7043;51.630;7.254;2023-02-03T09:43:59;8.20;;;4.53;;
13941;SDS011;7043;51.630;7.254;2023-02-03T09:46:29;11.03;;;5.87;;
13941;SDS011;7043;51.630;7.254;2023-02-03T09:48:58;7.30;;;4.90;;
13941;SDS011;7043;51.630;7.254;2023-02-03T09:51:39;7.97;;;4.70;;
13941;SDS011;7043;51.630;7.254;2023-02-03T09:56:52;10.10;;;5.73;;
13941;SDS011;7043;51.630;7.254;2023-02-03T09:59:20;11.10;;;5.40;;
13941;SDS011;7043;51.630;7.254;2023-02-03T10:04:37;13.03;;;7.43;;
13941;SDS011;7043;51.630;7.254;2023-02-03T10:07:10;9.87;;;5.63;;
13941;SDS011;7043;51.630;7.254;2023-02-03T10:22:29;7.73;;;4.57;;
13941;SDS011;7043;51.630;7.254;2023-02-03T10:25:09;11.20;;;5.30;;
13941;SDS011;7043;51.630;7.254;2023-02-03T10:27:39;15.77;;;7.60;;
13941;SDS011;7043;51.630;7.254;2023-02-03T10:32:36;10.40;;;6.63;;
13941;SDS011;7043;51.630;7.254;2023-02-03T10:35:02;9.20;;;5.70;;
13941;SDS011;7043;51.630;7.254;2023-02-03T10:37:30;9.23;;;4.90;;
13941;SDS011;7043;51.630;7.254;2023-02-03T10:39:59;9.93;;;4.10;;
13941;SDS011;7043;51.630;7.254;2023-02-03T10:42:27;10.37;;;6.17;;
13941;SDS011;7043;51.630;7.254;2023-02-03T10:45:13;8.83;;;5.67;;
13941;SDS011;7043;51.630;7.254;2023-02-03T10:47:46;11.27;;;6.53;;
13941;SDS011;7043;51.630;7.254;2023-02-03T10:50:14;9.13;;;5.00;;
13941;SDS011;7043;51.630;7.254;2023-02-03T10:52:41;11.47;;;5.73;;
13941;SDS011;7043;51.630;7.254;2023-02-03T10:55:13;8.77;;;6.03;;
13941;SDS011;7043;51.630;7.254;2023-02-03T10:57:54;7.73;;;4.20;;
13941;SDS011;7043;51.630;7.254;2023-02-03T11:00:27;7.60;;;4.97;;
13941;SDS011;7043;51.630;7.254;2023-02-03T11:03:40;9.47;;;5.83;;
13941;SDS011;7043;51.630;7.254;2023-02-03T11:05:40;10.37;;;5.90;;
13941;SDS011;7043;51.630;7.254;2023-02-03T11:08:13;8.97;;;5.97;;
13941;SDS011;7043;51.630;7.254;2023-02-03T11:10:39;10.20;;;5.97;;
13941;SDS011;7043;51.630;7.254;2023-02-03T11:13:11;7.23;;;4.67;;
13941;SDS011;7043;51.630;7.254;2023-02-03T11:15:42;13.30;;;5.67;;
13941;SDS011;7043;51.630;7.254;2023-02-03T11:18:24;10.33;;;5.33;;
13941;SDS011;7043;51.630;7.254;2023-02-03T11:20:50;8.77;;;4.70;;
13941;SDS011;7043;51.630;7.254;2023-02-03T11:23:17;11.40;;;4.90;;
13941;SDS011;7043;51.630;7.254;2023-02-03T11:25:44;10.70;;;5.10;;
13941;SDS011;7043;51.630;7.254;2023-02-03T11:28:10;12.50;;;5.73;;
13941;SDS011;7043;51.630;7.254;2023-02-03T11:30:36;7.77;;;5.27;;
13941;SDS011;7043;51.630;7.254;2023-02-03T11:33:04;14.80;;;7.30;;
13941;SDS011;7043;51.630;7.254;2023-02-03T11:35:50;13.57;;;6.57;;
13941;SDS011;7043;51.630;7.254;2023-02-03T11:38:28;14.63;;;7.33;;
13941;SDS011;7043;51.630;7.254;2023-02-03T11:40:57;13.00;;;5.30;;
13941;SDS011;7043;51.630;7.254;2023-02-03T11:43:25;11.37;;;5.77;;
13941;SDS011;7043;51.630;7.254;2023-02-03T11:45:53;10.43;;;6.40;;
13941;SDS011;7043;51.630;7.254;2023-02-03T11:48:29;14.00;;;6.57;;
13941;SDS011;7043;51.630;7.254;2023-02-03T12:03:39;11.17;;;5.67;;
13941;SDS011;7043;51.630;7.254;2023-02-03T12:06:14;10.40;;;5.57;;
13941;SDS011;7043;51.630;7.254;2023-02-03T12:11:17;9.67;;;5.00;;
13941;SDS011;7043;51.630;7.254;2023-02-03T12:19:08;11.87;;;4.63;;
13941;SDS011;7043;51.630;7.254;2023-02-03T12:29:17;7.57;;;5.07;;
13941;SDS011;7043;51.630;7.254;2023-02-03T12:32:01;9.07;;;5.50;;
13941;SDS011;7043;51.630;7.254;2023-02-03T12:34:35;11.17;;;4.27;;
13941;SDS011;7043;51.630;7.254;2023-02-03T12:42:18;15.30;;;5.50;;
13941;SDS011;7043;51.630;7.254;2023-02-03T12:49:52;7.40;;;2.93;;
13941;SDS011;7043;51.630;7.254;2023-02-03T12:52:41;9.80;;;3.97;;
13941;SDS011;7043;51.630;7.254;2023-02-03T12:55:15;11.30;;;4.40;;
13941;SDS011;7043;51.630;7.254;2023-02-03T12:57:55;8.13;;;4.50;;
13941;SDS011;7043;51.630;7.254;2023-02-03T13:03:03;10.10;;;5.23;;
13941;SDS011;7043;51.630;7.254;2023-02-03T13:05:46;13.03;;;5.60;;
13941;SDS011;7043;51.630;7.254;2023-02-03T13:08:56;8.70;;;4.00;;
13941;SDS011;7043;51.630;7.254;2023-02-03T13:11:37;8.67;;;2.83;;
13941;SDS011;7043;51.630;7.254;2023-02-03T13:13:59;9.47;;;3.00;;
13941;SDS011;7043;51.630;7.254;2023-02-03T13:16:38;12.43;;;3.80;;
13941;SDS011;7043;51.630;7.254;2023-02-03T13:19:07;11.50;;;3.50;;
13941;SDS011;7043;51.630;7.254;2023-02-03T13:21:36;10.60;;;3.77;;
13941;SDS011;7043;51.630;7.254;2023-02-03T13:24:03;12.37;;;4.10;;
13941;SDS011;7043;51.630;7.254;2023-02-03T13:26:43;11.73;;;3.70;;
13941;SDS011;7043;51.630;7.254;2023-02-03T13:35:05;15.10;;;3.73;;
13941;SDS011;7043;51.630;7.254;2023-02-03T13:37:55;14.13;;;4.47;;
13941;SDS011;7043;51.630;7.254;2023-02-03T13:40:30;11.97;;;3.60;;
13941;SDS011;7043;51.630;7.254;2023-02-03T13:42:59;15.37;;;3.57;;
13941;SDS011;7043;51.630;7.254;2023-02-03T13:45:27;16.07;;;4.23;;
13941;SDS011;7043;51.630;7.254;2023-02-03T13:47:56;15.83;;;4.23;;
13941;SDS011;7043;51.630;7.254;2023-02-03T13:50:23;11.57;;;4.50;;
13941;SDS011;7043;51.630;7.254;2023-02-03T13:55:36;13.83;;;3.80;;
13941;SDS011;7043;51.630;7.254;2023-02-03T13:58:03;11.30;;;2.57;;
13941;SDS011;7043;51.630;7.254;2023-02-03T14:05:50;13.07;;;4.03;;
13941;SDS011;7043;51.630;7.254;2023-02-03T14:13:43;16.60;;;3.77;;
13941;SDS011;7043;51.630;7.254;2023-02-03T14:16:13;15.13;;;3.80;;
13941;SDS011;7043;51.630;7.254;2023-02-03T14:18:47;12.27;;;3.70;;
13941;SDS011;7043;51.630;7.254;2023-02-03T14:21:16;13.03;;;4.30;;
13941;SDS011;7043;51.630;7.254;2023-02-03T14:24:02;9.63;;;3.57;;
13941;SDS011;7043;51.630;7.254;2023-02-03T14:26:35;15.87;;;3.70;;
13941;SDS011;7043;51.630;7.254;2023-02-03T14:29:03;18.20;;;4.50;;
13941;SDS011;7043;51.630;7.254;2023-02-03T14:31:30;16.43;;;3.70;;
13941;SDS011;7043;51.630;7.254;2023-02-03T14:34:06;15.43;;;3.73;;
13941;SDS011;7043;51.630;7.254;2023-02-03T14:36:44;18.27;;;4.23;;
13941;SDS011;7043;51.630;7.254;2023-02-03T14:41:47;12.53;;;3.07;;
13941;SDS011;7043;51.630;7.254;2023-02-03T14:44:25;18.03;;;4.03;;
13941;SDS011;7043;51.630;7.254;2023-02-03T15:00:06;19.97;;;4.93;;
13941;SDS011;7043;51.630;7.254;2023-02-03T15:02:34;21.13;;;4.90;;
13941;SDS011;7043;51.630;7.254;2023-02-03T15:07:40;21.40;;;4.77;;
13941;SDS011;7043;51.630;7.254;2023-02-03T15:12:46;16.10;;;4.50;;
13941;SDS011;7043;51.630;7.254;2023-02-03T15:15:20;19.83;;;4.40;;
13941;SDS011;7043;51.630;7.254;2023-02-03T15:17:46;17.10;;;4.50;;
13941;SDS011;7043;51.630;7.254;2023-02-03T15:22:58;18.83;;;5.40;;
13941;SDS011;7043;51.630;7.254;2023-02-03T15:25:24;17.53;;;4.60;;
13941;SDS011;7043;51.630;7.254;2023-02-03T15:27:52;15.93;;;4.33;;
13941;SDS011;7043;51.630;7.254;2023-02-03T15:30:24;12.37;;;4.40;;
13941;SDS011;7043;51.630;7.254;2023-02-03T15:33:04;17.13;;;5.13;;
13941;SDS011;7043;51.630;7.254;2023-02-03T15:35:31;14.87;;;4.10;;
13941;SDS011;7043;51.630;7.254;2023-02-03T15:38:03;18.90;;;4.67;;
13941;SDS011;7043;51.630;7.254;2023-02-03T15:40:33;11.53;;;3.80;;
13941;SDS011;7043;51.630;7.254;2023-02-03T15:43:03;16.83;;;4.33;;
13941;SDS011;7043;51.630;7.254;2023-02-03T15:45:32;11.37;;;3.13;;
13941;SDS011;7043;51.630;7.254;2023-02-03T15:48:02;15.23;;;3.80;;
13941;SDS011;7043;51.630;7.254;2023-02-03T15:52:56;12.87;;;4.50;;
13941;SDS011;7043;51.630;7.254;2023-02-03T15:57:54;19.57;;;4.67;;
13941;SDS011;7043;51.630;7.254;2023-02-03T16:02:52;16.00;;;5.43;;
13941;SDS011;7043;51.630;7.254;2023-02-03T16:05:30;20.90;;;5.87;;
13941;SDS011;7043;51.630;7.254;2023-02-03T16:07:56;14.93;;;5.10;;
13941;SDS011;7043;51.630;7.254;2023-02-03T16:10:30;14.10;;;4.20;;
13941;SDS011;7043;51.630;7.254;2023-02-03T16:15:42;20.83;;;6.40;;
13941;SDS011;7043;51.630;7.254;2023-02-03T16:18:11;17.57;;;5.03;;
13941;SDS011;7043;51.630;7.254;2023-02-03T16:20:47;12.80;;;3.87;;
13941;SDS011;7043;51.630;7.254;2023-02-03T16:23:17;18.80;;;4.67;;
13941;SDS011;7043;51.630;7.254;2023-02-03T16:25:59;18.13;;;5.20;;
13941;SDS011;7043;51.630;7.254;2023-02-03T16:28:25;16.07;;;4.00;;
13941;SDS011;7043;51.630;7.254;2023-02-03T16:31:12;14.03;;;3.30;;
13941;SDS011;7043;51.630;7.254;2023-02-03T16:33:59;21.93;;;5.77;;
13941;SDS011;7043;51.630;7.254;2023-02-03T16:36:44;20.03;;;4.57;;
13941;SDS011;7043;51.630;7.254;2023-02-03T16:39:28;16.07;;;5.30;;
13941;SDS011;7043;51.630;7.254;2023-02-03T16:42:19;23.27;;;5.47;;
13941;SDS011;7043;51.630;7.254;2023-02-03T16:45:12;16.03;;;4.93;;
13941;SDS011;7043;51.630;7.254;2023-02-03T16:47:57;15.90;;;4.13;;
13941;SDS011;7043;51.630;7.254;2023-02-03T16:50:42;19.27;;;4.70;;
13941;SDS011;7043;51.630;7.254;2023-02-03T16:53:17;13.57;;;4.10;;
13941;SDS011;7043;51.630;7.254;2023-02-03T16:55:43;15.47;;;3.97;;
13941;SDS011;7043;51.630;7.254;2023-02-03T16:58:10;16.50;;;4.43;;
13941;SDS011;7043;51.630;7.254;2023-02-03T17:00:40;18.20;;;4.60;;
13941;SDS011;7043;51.630;7.254;2023-02-03T17:03:16;17.13;;;4.00;;
13941;SDS011;7043;51.630;7.254;2023-02-03T17:05:43;18.40;;;4.23;;
13941;SDS011;7043;51.630;7.254;2023-02-03T17:08:09;16.33;;;4.27;;
13941;SDS011;7043;51.630;7.254;2023-02-03T17:10:36;18.37;;;4.50;;
13941;SDS011;7043;51.630;7.254;2023-02-03T17:13:03;18.10;;;4.50;;
13941;SDS011;7043;51.630;7.254;2023-02-03T17:15:29;18.47;;;5.53;;
13941;SDS011;7043;51.630;7.254;2023-02-03T17:17:56;21.50;;;7.50;;
13941;SDS011;7043;51.630;7.254;2023-02-03T17:20:23;18.73;;;6.30;;
13941;SDS011;7043;51.630;7.254;2023-02-03T17:22:49;21.03;;;7.00;;
13941;SDS011;7043;51.630;7.254;2023-02-03T17:25:18;20.77;;;5.83;;
13941;SDS011;7043;51.630;7.254;2023-02-03T17:27:44;22.83;;;7.00;;
13941;SDS011;7043;51.630;7.254;2023-02-03T17:30:11;23.47;;;6.63;;
13941;SDS011;7043;51.630;7.254;2023-02-03T17:32:37;19.50;;;7.13;;
13941;SDS011;7043;51.630;7.254;2023-02-03T17:35:03;19.17;;;5.07;;